X  Chiuso Dati meteorologici dell'aviazione (METAR)     LIPX Verona-Villafranca Valerio Catullo Airport
Temperatura
26°C Temperatura
12°C Punto di rugiada
42% Umidità



Vento
13 KM/H
8 MPH
4 M/S
7 KTS



80°
Est
Condizioni attuali

Parzialmente nuvoloso Parzialmente nuvoloso
Pressione 1019.92 (hPa) - 30.12 (inHg)
Visibilità 6.2 (miglio) - 10 (km)
Aeroporto
Codice-Aeroporto LIPX

Posizione: Verona-Villafranca Valerio Catullo Airport
Distanza: 50 (km)

Metar:
LIPX 100650Z 08007KT 9999 FEW080 26/12 Q1020

Ore: 10-08-2022 08:50 CEST